METAR - Ísland

Uppfært síðast 12.12.2019 - kl. 08:03

SIGMET síðustu 6 klst.

Engin SIGMET skeyti bárust síðustu 6 klst.

METAR síðustu 3 klst

Flugv.TímiSkeyti
BIAR2019-12-12 08.00METAR BIAR 120800Z 31006KT 7000 -SN FEW011 SCT019 BKN030 M03/M03 Q0988 RMK WIND VADLAHEIDI 01714KT
BIAR2019-12-12 07.10SPECI BIAR 120710Z 31005KT 7000 SN SCT006 BKN012 OVC028 M03/M03 Q0988 RMK WIND VADLAHEIDI 01515KT
BIAR2019-12-12 07.00METAR BIAR 120700Z 33005KT 1200 R01/1200VP2000D SN VV004 M03/M03 Q0988 WIND VADLAHEIDI 00112KT
BIAR2019-12-12 06.00METAR BIAR 120600Z 31005KT 290V350 6000 -FZRA -SN FEW010 BKN012 OVC038 M03/M04 Q0988 WIND VADLAHEIDI 35313KT
BIEG2019-12-12 08.00METAR BIEG 120800Z 35014KT 1500 SHSN VV004 M02/M02 Q0983 R04/790392 RMK WIND GAGNHEIDI 02034KT
BIEG2019-12-12 07.00METAR BIEG 120700Z 35020KT 5000 -SHSN SCT010 OVC018 M01/M01 Q0982 R04/790392 RMK WIND GAGNHEIDI 01040KT
BIEG2019-12-12 06.00METAR BIEG 120600Z 35017KT 9999 FEW010 BKN018 OVC025 M01/M01 Q0982 RESHSN R04/790392 RMK WIND GAGNHEIDI 01035KT
BIHN2019-12-12 08.00METAR BIHN 120800Z 33018KT 9999 FEW040 SCT060 M01/M07 Q0983
BIHU2019-12-12 08.00METAR BIHU 120800Z 02022KT 3500 -SN BLSN BKN008 OVC015 M02/M03 Q0987 R02/5993// RMK MOKSTUR
BIHU2019-12-12 06.47METAR BIHU 120647Z 02020KT 2000 -SN BLSN M03/M03 Q0987 R02/5993// RMK MOKSTUR
BIIS2019-12-12 08.00METAR BIIS 120800Z 03014G24KT 8000 SN OVC025 M03/M06 Q0993
BIIS2019-12-12 07.11METAR BIIS 120711Z 02013G23KT 9999 SHSN OVC025 M03/M05 Q0992
BIKF2019-12-12 08.00METAR BIKF 120800Z 04020KT 9999 FEW022 M02/M07 Q0987
BIKF2019-12-12 07.30METAR BIKF 120730Z 04020KT 9999 FEW022 M02/M07 Q0987
BIKF2019-12-12 07.00METAR BIKF 120700Z 04022G33KT 9999 FEW022 M02/M08 Q0987
BIKF2019-12-12 06.30METAR BIKF 120630Z 04020KT 9999 FEW022 M02/M07 Q0987
BIKF2019-12-12 06.00METAR BIKF 120600Z 04022G34KT 9999 FEW022 M02/M06 Q0986 R01/090063
BIKF2019-12-12 05.30METAR BIKF 120530Z 04020G30KT 9999 FEW021 M02/M06 Q0986 R01/090063
BIRK2019-12-12 08.00METAR BIRK 120800Z VRB02KT CAVOK M04/M10 Q0986 R01/790140
BIRK2019-12-12 07.00METAR BIRK 120700Z 05004KT 330V080 CAVOK M03/M10 Q0986 R01/790140
BIRK2019-12-12 06.00METAR BIRK 120600Z 08005KT 020V110 CAVOK M02/M10 Q0986 R01/790146
BIVM2019-12-12 07.00METAR BIVM 120700Z 10008KT CAVOK 02/M08 Q0981
BIVM2019-12-12 06.32METAR BIVM 120632Z 16007KT 060V220 CAVOK 02/M08 Q0981
BIVO2019-12-12 07.00METAR BIVO 120700Z 35011G21KT 9999 4999SW SHSN SCT005 OVC010 M01/M03 Q0984 R05/4920//

Textaspár eru skrifaðar af vakthafandi veðurfræðingi á Veðurstofu Íslands.




Aðrir tengdir vefir



Þetta vefsvæði byggir á Eplica